createdAt,value
2023-02-16T04:10:00.576Z,17.37
2023-02-16T04:11:04.848Z,18.90
2023-02-16T04:12:10.361Z,20.87
2023-02-16T04:13:14.104Z,21.02
2023-02-16T04:14:17.912Z,22.08
2023-02-16T04:15:23.450Z,23.13
2023-02-16T04:16:27.117Z,23.88
2023-02-16T04:17:30.841Z,24.67
2023-02-16T04:18:34.405Z,25.10
2023-02-16T04:19:38.051Z,25.80
2023-02-16T04:20:41.739Z,26.20
2023-02-16T04:21:45.432Z,31.55
2023-02-16T04:22:49.482Z,35.30
2023-02-16T04:23:53.178Z,37.60
2023-02-16T04:24:56.855Z,38.20
2023-02-16T04:26:04.338Z,39.10
2023-02-16T04:27:08.011Z,39.40
2023-02-16T04:28:21.434Z,40.20
2023-02-16T04:29:25.123Z,41.78
2023-02-16T04:30:32.071Z,41.38
2023-02-16T04:31:36.158Z,42.35
2023-02-16T04:32:40.381Z,41.35
2023-02-16T04:33:44.466Z,43.07
2023-02-16T04:34:48.452Z,48.28
2023-02-16T04:35:52.416Z,55.10
2023-02-16T04:36:56.473Z,56.03
2023-02-16T04:38:00.195Z,56.47
2023-02-16T04:39:03.850Z,54.87
2023-02-16T04:40:09.892Z,55.92
2023-02-16T04:41:15.207Z,57.05
2023-02-16T04:42:18.796Z,61.10
2023-02-16T04:43:22.437Z,63.25
2023-02-16T04:44:26.133Z,69.80
2023-02-16T04:45:29.816Z,71.95
2023-02-16T04:46:33.525Z,77.25
2023-02-16T04:47:37.303Z,46.08
2023-02-16T04:48:40.885Z,40.05
2023-02-16T04:49:44.542Z,41.17
2023-02-16T04:50:48.171Z,41.05
2023-02-16T04:51:51.830Z,42.80
2023-02-16T04:52:55.449Z,42.60
2023-02-16T04:53:59.110Z,42.15
2023-02-16T04:55:02.727Z,43.20
2023-02-16T04:56:09.800Z,42.92
2023-02-16T04:57:15.236Z,44.97
2023-02-16T04:58:18.975Z,39.60
2023-02-16T04:59:22.622Z,40.58
2023-02-16T05:00:26.398Z,38.50
2023-02-16T05:01:30.324Z,37.90
2023-02-16T05:02:34.207Z,37.88
2023-02-16T05:03:37.978Z,37.10
2023-02-16T05:04:41.804Z,36.15
2023-02-16T05:05:45.720Z,35.63
2023-02-16T05:06:49.397Z,35.80
2023-02-16T05:07:53.241Z,34.58
2023-02-16T05:08:56.892Z,35.88
2023-02-16T05:10:00.469Z,36.70
2023-02-16T05:11:04.456Z,36.10
2023-02-16T05:12:08.590Z,36.45
2023-02-16T05:13:14.011Z,37.22
2023-02-16T05:14:20.904Z,35.78
2023-02-16T05:15:24.990Z,37.45
2023-02-16T05:16:28.686Z,37.33
2023-02-16T05:17:32.404Z,36.85
2023-02-16T05:18:36.170Z,36.42
2023-02-16T05:19:39.844Z,36.33
2023-02-16T05:20:43.565Z,37.28
2023-02-16T05:21:47.170Z,37.53
2023-02-16T05:22:50.859Z,36.72
2023-02-16T05:23:54.642Z,38.70
2023-02-16T05:24:58.229Z,37.20
2023-02-16T05:26:01.928Z,37.42
2023-02-16T05:27:07.070Z,36.93
2023-02-16T05:28:10.808Z,37.17
2023-02-16T05:29:16.217Z,37.88
2023-02-16T05:30:20.032Z,38.03
2023-02-16T05:31:24.697Z,39.00
2023-02-16T05:32:28.498Z,38.83
2023-02-16T05:33:32.131Z,39.58
2023-02-16T05:34:35.888Z,38.80
2023-02-16T05:35:39.848Z,38.20
2023-02-16T05:36:43.494Z,38.25
2023-02-16T05:37:47.121Z,39.13
2023-02-16T05:38:50.764Z,40.22
2023-02-16T05:39:54.456Z,40.88
2023-02-16T05:40:59.562Z,39.25
2023-02-16T05:42:03.359Z,39.67
2023-02-16T05:43:07.055Z,39.37
2023-02-16T05:44:11.471Z,38.90
2023-02-16T05:46:37.905Z,38.35
2023-02-16T05:47:41.833Z,40.85
2023-02-16T05:48:45.383Z,38.63
2023-02-16T05:49:49.025Z,38.63
2023-02-16T05:50:55.432Z,38.28
2023-02-16T05:51:59.044Z,38.97
2023-02-16T05:53:02.839Z,38.42
2023-02-16T05:54:07.186Z,37.53
2023-02-16T05:55:11.260Z,38.13
2023-02-16T05:56:15.450Z,39.30
2023-02-16T05:57:19.214Z,37.97
2023-02-16T05:58:22.877Z,38.05
2023-02-16T05:59:26.513Z,36.97
2023-02-16T06:00:31.866Z,38.20
2023-02-16T06:01:35.584Z,38.20
2023-02-16T06:02:39.370Z,39.03
2023-02-16T06:03:43.626Z,38.90
2023-02-16T06:04:47.259Z,38.50
2023-02-16T06:05:54.666Z,38.63
2023-02-16T06:06:58.305Z,38.90
2023-02-16T06:08:01.951Z,37.63
2023-02-16T06:09:06.688Z,37.15
2023-02-16T06:10:10.974Z,38.13
2023-02-16T06:11:14.700Z,39.10
2023-02-16T06:12:18.294Z,38.30
2023-02-16T06:13:23.122Z,38.10
2023-02-16T06:14:27.069Z,38.22
2023-02-16T06:15:32.334Z,39.63
2023-02-16T06:16:37.196Z,39.33
2023-02-16T06:17:40.927Z,40.10
2023-02-16T06:18:44.980Z,39.30
2023-02-16T06:19:48.810Z,40.35
2023-02-16T06:20:52.624Z,38.53
2023-02-16T06:21:56.266Z,39.20
2023-02-16T06:22:59.874Z,40.67
2023-02-16T06:24:03.753Z,39.15
2023-02-16T06:25:09.573Z,39.75
2023-02-16T06:26:13.338Z,39.73
2023-02-16T06:27:17.023Z,39.97
2023-02-16T06:28:20.695Z,40.13
2023-02-16T06:29:24.476Z,40.72
2023-02-16T06:30:28.641Z,39.90
2023-02-16T06:31:36.421Z,39.83
2023-02-16T06:32:40.513Z,38.70
2023-02-16T06:33:44.445Z,39.72
2023-02-16T06:34:48.094Z,40.65
2023-02-16T06:35:51.829Z,40.03
2023-02-16T06:36:55.545Z,39.67
2023-02-16T06:37:59.658Z,38.72
2023-02-16T06:39:03.378Z,39.03
2023-02-16T06:40:08.384Z,38.60
2023-02-16T11:45:09.454Z,28.47
2023-02-16T11:46:19.530Z,27.67
2023-02-16T11:47:26.468Z,27.42
2023-02-16T11:48:42.628Z,26.00
2023-02-16T11:49:46.235Z,26.17
2023-02-16T11:50:59.079Z,26.17
2023-02-16T11:52:18.214Z,25.85
2023-02-16T11:53:25.346Z,25.67
2023-02-16T11:54:29.099Z,26.88
2023-02-16T11:55:34.398Z,26.48
2023-02-16T11:56:38.255Z,25.97
2023-02-16T11:57:41.945Z,26.48
2023-02-16T11:58:45.702Z,26.23
2023-02-16T11:59:49.581Z,25.80
2023-02-16T12:01:10.579Z,25.92
2023-02-16T12:02:45.884Z,26.20
2023-02-16T12:04:05.409Z,25.77
2023-02-16T12:05:28.356Z,25.35
2023-02-16T12:06:47.031Z,25.13
2023-02-16T12:08:04.862Z,25.77
2023-02-16T12:09:20.784Z,24.77
2023-02-16T12:10:32.068Z,24.38
2023-02-16T12:11:44.744Z,25.75
2023-02-16T12:12:57.033Z,25.42
2023-02-16T12:14:19.365Z,26.30
2023-02-16T12:15:30.578Z,25.33
2023-02-16T12:16:42.809Z,24.73
2023-02-16T12:18:15.320Z,25.60
2023-02-16T12:19:33.238Z,24.42
2023-02-16T12:21:05.251Z,24.35
2023-02-16T12:22:25.071Z,24.50
2023-02-16T12:23:37.622Z,25.70
2023-02-16T12:24:53.925Z,26.88
2023-02-16T12:26:09.403Z,28.80
2023-02-16T12:27:19.344Z,28.00
2023-02-16T12:28:36.590Z,27.23
2023-02-16T12:29:50.752Z,27.17
2023-02-16T12:31:06.437Z,26.85
2023-02-16T12:32:30.874Z,26.58
2023-02-16T12:33:53.319Z,25.70
2023-02-16T12:35:18.869Z,23.83
2023-02-16T12:36:33.846Z,24.10
2023-02-16T12:37:45.372Z,23.73
2023-02-16T12:38:57.865Z,23.83
2023-02-16T12:40:12.377Z,24.40
2023-02-16T12:41:27.910Z,23.67
2023-02-16T12:42:50.537Z,23.80
2023-02-16T12:43:59.854Z,24.02
2023-02-16T12:45:09.824Z,23.52
2023-02-16T12:46:19.881Z,23.90
2023-02-16T12:47:30.882Z,24.83
2023-02-16T12:48:42.201Z,23.38
2023-02-16T12:49:57.112Z,23.08
2023-02-16T12:51:04.911Z,23.10
2023-02-16T12:52:13.736Z,23.05
2023-02-16T12:53:26.656Z,22.63
2023-02-16T12:54:37.206Z,24.05
2023-02-16T12:55:47.001Z,23.92
2023-02-16T12:56:58.788Z,23.85
2023-02-16T12:58:10.808Z,23.33
2023-02-16T13:00:44.634Z,22.50
2023-02-16T13:01:51.580Z,22.10
2023-02-16T13:03:13.905Z,23.30
2023-02-16T13:04:25.597Z,23.40
2023-02-16T13:05:35.686Z,22.23
2023-02-16T13:06:46.818Z,23.13
2023-02-16T13:07:57.677Z,22.73
2023-02-16T13:09:11.319Z,23.88
2023-02-16T13:10:21.434Z,23.58
2023-02-16T13:11:33.603Z,22.57
2023-02-16T13:12:41.205Z,21.83
2023-02-16T13:13:48.242Z,22.40
2023-02-16T13:14:58.534Z,23.70
2023-02-16T13:16:14.951Z,21.98
2023-02-16T13:17:35.028Z,21.43
2023-02-16T13:18:43.229Z,21.60
2023-02-16T13:19:48.672Z,23.48
2023-02-16T13:20:59.337Z,21.63
2023-02-16T13:22:15.126Z,22.08
2023-02-16T13:23:42.001Z,22.17
2023-02-16T13:25:02.205Z,23.88
2023-02-16T13:26:41.225Z,21.98
2023-02-16T13:27:54.827Z,21.48
2023-02-16T13:29:38.330Z,22.23
2023-02-16T13:31:01.033Z,21.90
2023-02-16T13:32:24.539Z,23.45
2023-02-16T13:33:52.379Z,21.58
2023-02-16T13:35:25.925Z,21.60
2023-02-16T13:36:45.857Z,21.02
2023-02-16T13:38:05.052Z,26.60
2023-02-16T13:39:23.112Z,21.40
2023-02-16T13:41:07.797Z,21.88
2023-02-16T13:43:04.602Z,20.38
2023-02-16T13:44:14.380Z,20.50
2023-02-16T13:45:22.013Z,20.33
2023-02-16T13:46:30.565Z,19.85
2023-02-16T13:47:40.329Z,20.98
2023-02-16T13:48:50.848Z,20.65
2023-02-16T13:49:58.725Z,19.73
2023-02-16T13:51:04.632Z,22.00
2023-02-16T13:52:09.598Z,20.17
2023-02-16T13:53:21.015Z,20.83
2023-02-16T13:54:30.295Z,20.27
2023-02-16T13:55:36.310Z,20.52
2023-02-16T13:56:40.081Z,19.97
2023-02-16T13:58:36.955Z,20.90
2023-02-16T14:00:02.260Z,21.15
2023-02-16T14:01:36.521Z,24.58
2023-02-16T14:03:01.267Z,19.70
2023-02-16T14:04:09.928Z,19.43
2023-02-16T14:05:26.629Z,22.42
2023-02-16T14:06:33.868Z,22.67
2023-02-16T14:07:38.079Z,20.92
2023-02-16T14:08:43.601Z,21.42
2023-02-16T14:09:49.251Z,20.70
2023-02-16T14:11:08.988Z,19.73
2023-02-16T14:12:19.548Z,21.48
2023-02-16T14:13:28.431Z,20.17
2023-02-16T14:16:03.260Z,20.27
2023-02-16T14:17:27.453Z,25.13
2023-02-16T14:18:45.066Z,25.05
2023-02-16T14:19:56.391Z,19.98
2023-02-16T14:21:04.834Z,22.55
2023-02-16T14:22:12.629Z,20.93
2023-02-16T14:23:31.930Z,21.73
2023-02-16T14:24:39.194Z,21.42
2023-02-16T14:25:52.431Z,21.50
2023-02-16T14:26:58.028Z,21.65
2023-02-16T14:28:04.068Z,24.73
2023-02-16T14:29:18.903Z,20.08
2023-02-16T14:30:28.767Z,20.50
2023-02-16T14:31:52.658Z,23.80
2023-02-16T14:33:02.100Z,22.45
2023-02-16T14:34:14.333Z,22.20
2023-02-16T14:35:22.549Z,21.33
2023-02-16T14:36:26.588Z,20.55
2023-02-16T14:37:35.008Z,25.98
2023-02-16T14:38:43.880Z,23.83
2023-02-16T14:40:07.017Z,25.30
2023-02-16T14:42:58.004Z,25.10
2023-02-16T14:44:26.739Z,25.27
2023-02-16T14:46:05.528Z,23.00
2023-02-16T14:47:26.638Z,28.33
2023-02-16T14:49:11.284Z,23.60
2023-02-16T14:50:49.659Z,22.35
2023-02-16T14:53:04.349Z,22.75
2023-02-16T14:54:42.361Z,21.42
2023-02-16T14:56:12.574Z,20.63
2023-02-16T14:57:21.715Z,26.23
2023-02-16T14:58:32.314Z,29.27
2023-02-16T14:59:43.168Z,25.48
2023-02-16T15:00:50.778Z,29.50
2023-02-16T15:03:23.320Z,23.65
2023-02-16T15:05:56.854Z,22.63
2023-02-16T15:07:02.970Z,22.00
2023-02-16T15:08:13.099Z,22.13
2023-02-16T15:09:20.834Z,25.63
2023-02-16T15:10:28.784Z,22.00
2023-02-16T15:11:36.096Z,25.42
2023-02-16T15:12:41.023Z,23.92
2023-02-16T15:13:45.711Z,24.63
2023-02-16T15:14:51.917Z,22.90
2023-02-16T15:15:57.888Z,24.13
2023-02-16T15:17:01.787Z,22.83
2023-02-16T15:18:05.953Z,26.23
2023-02-16T15:19:17.997Z,24.10
2023-02-16T15:20:25.225Z,25.85
2023-02-16T15:21:30.758Z,26.42
2023-02-16T15:22:34.820Z,25.10
2023-02-16T15:23:38.621Z,27.60
2023-02-16T15:24:42.962Z,24.10
2023-02-16T15:25:56.309Z,24.05
2023-02-16T15:27:00.143Z,26.88
2023-02-16T15:28:05.896Z,26.27
2023-02-16T15:29:23.753Z,28.33
2023-02-16T15:30:29.146Z,27.70
2023-02-16T15:31:36.110Z,28.83
2023-02-16T15:32:40.350Z,25.63
2023-02-16T15:34:05.658Z,24.35
2023-02-16T15:35:22.635Z,26.13
2023-02-16T15:36:37.310Z,23.42
2023-02-16T15:37:41.324Z,25.73
2023-02-16T15:38:57.211Z,25.52
2023-02-16T15:40:29.638Z,24.33
2023-02-16T15:41:44.585Z,25.25
2023-02-16T15:42:50.424Z,26.05
2023-02-16T15:44:26.041Z,25.30
2023-02-16T15:45:29.565Z,25.10
2023-02-16T15:46:38.691Z,23.85
2023-02-16T15:47:43.160Z,30.00
2023-02-16T15:50:14.434Z,27.90
2023-02-16T15:51:36.035Z,26.92
2023-02-16T15:52:41.591Z,28.65
2023-02-16T15:53:56.194Z,26.00
2023-02-16T15:55:02.786Z,28.02
2023-02-16T15:56:21.959Z,23.97
2023-02-16T15:57:30.294Z,27.55
2023-02-16T15:58:44.375Z,30.65
2023-02-16T15:59:51.637Z,26.45
2023-02-16T16:00:57.079Z,28.85
2023-02-16T16:02:08.575Z,29.97
2023-02-16T16:03:17.686Z,27.38
2023-02-16T16:04:29.611Z,28.45
2023-02-16T16:05:34.989Z,27.08
2023-02-16T16:06:49.401Z,34.03
2023-02-16T16:07:55.492Z,27.93
2023-02-16T16:09:40.728Z,29.65
2023-02-16T16:10:36.588Z,27.77
2023-02-16T16:11:40.622Z,26.90
2023-02-16T16:12:44.949Z,28.20
2023-02-16T16:13:58.184Z,28.73
2023-02-16T16:15:03.106Z,34.70
2023-02-16T16:16:07.629Z,28.65
2023-02-16T16:17:21.615Z,30.45
2023-02-16T16:18:43.685Z,31.48
2023-02-16T16:19:53.518Z,26.53
2023-02-16T16:21:03.194Z,28.52
2023-02-16T16:22:30.672Z,31.38
2023-02-16T16:23:36.294Z,27.55
2023-02-16T16:24:40.392Z,30.63
2023-02-16T16:25:45.785Z,30.43
2023-02-16T16:26:54.984Z,30.42
2023-02-16T16:27:59.092Z,27.60
2023-02-16T16:29:03.557Z,27.80
2023-02-16T16:30:14.122Z,29.98
2023-02-16T20:01:34.546Z,22.70
2023-02-16T20:02:38.225Z,25.08
2023-02-16T20:03:41.949Z,25.67
2023-02-16T20:04:46.213Z,24.02
2023-02-16T20:05:49.917Z,27.85
2023-02-16T20:06:53.928Z,23.67
2023-02-16T20:07:57.816Z,26.15
2023-02-16T20:09:02.306Z,23.55
2023-02-16T20:10:06.712Z,26.40
2023-02-16T20:11:10.420Z,27.88
2023-02-16T20:12:14.434Z,25.37
2023-02-16T20:13:18.080Z,23.60
2023-02-16T20:14:21.807Z,25.13
2023-02-16T20:15:25.610Z,25.17
2023-02-16T20:16:30.014Z,26.10
2023-02-16T20:17:35.464Z,27.13
2023-02-16T20:18:39.441Z,23.63
2023-02-16T20:19:43.061Z,26.98
2023-02-16T20:20:46.716Z,28.35
2023-02-16T20:21:50.346Z,26.60
2023-02-16T20:22:54.022Z,22.83
2023-02-16T20:23:59.577Z,23.88
2023-02-16T20:25:03.353Z,24.27
2023-02-16T20:26:08.364Z,26.50
2023-02-16T20:27:12.184Z,23.10
2023-02-16T20:28:15.890Z,23.53
2023-02-16T20:29:19.511Z,28.42
2023-02-16T20:30:23.394Z,27.45
2023-02-16T20:31:29.478Z,25.83
2023-02-16T20:32:36.046Z,26.17
2023-02-16T20:33:39.958Z,25.00
2023-02-16T20:34:43.686Z,27.17
2023-02-16T20:35:47.478Z,27.50
2023-02-16T20:36:51.272Z,26.88
2023-02-16T20:37:54.887Z,24.48
2023-02-16T20:38:58.849Z,25.57
2023-02-16T20:40:02.736Z,23.85
2023-02-16T20:41:07.074Z,24.77
2023-02-16T20:42:10.746Z,25.17
2023-02-16T20:43:14.426Z,29.33
2023-02-16T20:44:18.249Z,24.93
2023-02-16T20:45:22.015Z,25.50
2023-02-16T20:46:25.681Z,24.58
2023-02-16T20:47:29.419Z,25.75
2023-02-16T20:48:35.410Z,24.73
2023-02-16T20:49:39.180Z,23.57
2023-02-16T20:50:43.178Z,25.15
2023-02-16T20:51:46.857Z,23.38
2023-02-16T20:52:50.479Z,23.88
2023-02-16T20:53:54.285Z,26.67
2023-02-16T20:54:57.972Z,26.03
2023-02-16T20:56:02.589Z,25.20
2023-02-16T20:57:08.201Z,25.17
2023-02-16T20:58:16.831Z,27.52
2023-02-16T20:59:20.803Z,26.80
2023-02-16T21:00:24.628Z,25.17
2023-02-16T21:01:31.174Z,26.05
2023-02-16T21:02:34.775Z,25.00
2023-02-16T21:03:40.176Z,28.33
2023-02-16T21:04:45.184Z,26.08
2023-02-16T21:05:48.892Z,26.27
2023-02-16T21:06:52.556Z,25.45
2023-02-16T21:07:56.206Z,29.23
2023-02-16T21:08:59.974Z,25.73
2023-02-16T21:10:03.861Z,23.55
2023-02-16T21:11:07.670Z,29.07
2023-02-16T21:12:11.434Z,29.75
2023-02-16T21:13:15.086Z,25.80
2023-02-16T21:14:18.783Z,27.00
2023-02-16T21:15:22.572Z,26.70
2023-02-16T21:16:26.733Z,25.80
2023-02-16T21:17:30.940Z,27.20
2023-02-16T21:18:34.673Z,25.38
2023-02-16T21:19:40.014Z,22.42
2023-02-16T21:20:44.012Z,26.17
2023-02-16T21:21:47.699Z,25.80
2023-02-16T21:22:51.472Z,26.35
2023-02-16T21:23:55.738Z,27.00
2023-02-16T21:24:59.499Z,24.25
2023-02-16T21:26:05.616Z,30.45
2023-02-16T21:27:09.855Z,25.27
2023-02-16T21:28:13.654Z,29.20
2023-02-16T21:29:17.387Z,27.85
2023-02-16T21:30:21.276Z,24.92
2023-02-16T21:31:26.425Z,25.98
2023-02-16T21:32:30.178Z,25.53
2023-02-16T21:33:34.188Z,26.20
2023-02-16T21:34:39.812Z,25.75
2023-02-16T21:35:43.524Z,27.67
2023-02-16T21:36:47.156Z,23.52
2023-02-16T21:37:50.872Z,26.20
2023-02-16T21:38:55.363Z,26.15
2023-02-16T21:39:58.985Z,24.95
2023-02-16T21:41:07.279Z,29.77
2023-02-16T21:42:10.972Z,24.98
2023-02-16T21:43:14.564Z,25.23
2023-02-16T21:44:18.476Z,24.20
2023-02-16T21:45:22.422Z,26.02
2023-02-16T21:46:26.616Z,28.05
2023-02-16T21:47:30.440Z,24.35
2023-02-16T21:48:34.109Z,26.47
2023-02-16T21:49:39.518Z,23.20
2023-02-16T21:50:43.212Z,25.20
2023-02-16T21:51:48.169Z,29.55
2023-02-16T21:52:52.271Z,25.90
2023-02-16T21:53:56.787Z,25.23
2023-02-16T21:55:00.397Z,26.25
2023-02-16T21:56:06.265Z,27.02
2023-02-16T21:57:10.059Z,22.48
2023-02-16T21:58:13.750Z,21.73
2023-02-16T21:59:18.986Z,26.43
2023-02-16T22:00:22.768Z,24.38
2023-02-16T22:01:28.259Z,25.25
2023-02-16T22:02:31.889Z,23.08
2023-02-16T22:03:35.490Z,23.50
2023-02-16T22:04:40.690Z,22.10
2023-02-16T22:05:44.296Z,27.00
2023-02-16T22:06:49.771Z,23.80
2023-02-16T22:07:53.648Z,23.85
2023-02-16T22:08:57.384Z,27.92
2023-02-16T22:10:01.159Z,20.67
2023-02-16T22:11:09.028Z,24.45
2023-02-16T22:12:12.776Z,24.83
2023-02-16T22:13:16.909Z,21.75
2023-02-16T22:14:20.840Z,26.58
2023-02-16T22:15:24.567Z,22.20
2023-02-16T22:16:36.772Z,23.92
2023-02-16T22:17:40.422Z,21.15
2023-02-16T22:18:44.646Z,23.45
2023-02-16T22:20:02.344Z,22.45
2023-02-16T22:21:07.180Z,20.07
2023-02-16T22:22:32.997Z,24.48
2023-02-16T22:23:37.208Z,24.42
2023-02-16T22:24:55.945Z,23.25
2023-02-16T22:25:59.620Z,24.55
2023-02-16T22:27:03.196Z,35.00
2023-02-16T22:28:07.043Z,22.58
2023-02-16T22:30:31.122Z,23.83
2023-02-16T22:31:35.077Z,20.88
2023-02-16T22:32:38.762Z,22.37
2023-02-16T22:33:42.412Z,23.73
2023-02-16T22:34:46.009Z,22.25
2023-02-16T22:35:51.577Z,22.83
2023-02-16T22:36:55.281Z,26.27
2023-02-16T22:37:58.963Z,21.57
2023-02-16T22:39:02.585Z,25.13
2023-02-16T22:40:14.010Z,23.85
